createdAt,value
2022-10-05T00:02:25.702Z,7.83
2022-10-05T00:04:59.408Z,7.86
2022-10-05T00:07:31.053Z,7.88
2022-10-05T00:10:01.523Z,7.82
2022-10-05T00:12:30.723Z,7.82
2022-10-05T00:15:02.884Z,7.84
2022-10-05T00:17:32.523Z,7.86
2022-10-05T00:20:02.978Z,7.89
2022-10-05T00:22:34.839Z,7.88
2022-10-05T00:25:13.874Z,7.96
2022-10-05T00:27:42.905Z,7.86
2022-10-05T00:30:17.646Z,7.94
2022-10-05T00:32:47.206Z,7.86
2022-10-05T00:35:19.988Z,7.97
2022-10-05T00:37:55.708Z,7.94
2022-10-05T00:40:41.948Z,7.86
2022-10-05T00:43:45.675Z,7.81
2022-10-05T00:46:21.729Z,7.87
2022-10-05T00:49:03.986Z,7.79
2022-10-05T00:51:38.385Z,7.85
2022-10-05T00:54:24.985Z,7.76
2022-10-05T00:57:19.034Z,7.89
2022-10-05T01:00:03.812Z,7.92
2022-10-05T01:02:49.202Z,8.02
2022-10-05T01:05:44.744Z,8.01
2022-10-05T01:08:31.726Z,8.04
2022-10-05T01:11:11.780Z,8.11
2022-10-05T01:13:52.940Z,8.09
2022-10-05T01:16:31.289Z,8.07
2022-10-05T01:19:17.658Z,8.09
2022-10-05T01:21:58.257Z,8.14
2022-10-05T01:24:50.394Z,8.16
2022-10-05T01:27:48.603Z,8.22
2022-10-05T01:30:21.550Z,8.12
2022-10-05T01:33:00.088Z,8.20
2022-10-05T01:35:45.491Z,8.12
2022-10-05T01:38:32.737Z,8.17
2022-10-05T01:41:22.282Z,8.12
2022-10-05T01:44:01.708Z,8.12
2022-10-05T01:46:39.516Z,8.18
2022-10-05T01:49:28.242Z,8.16
2022-10-05T01:52:19.660Z,8.14
2022-10-05T01:55:05.382Z,8.21
2022-10-05T01:57:49.028Z,8.32
2022-10-05T02:00:21.772Z,8.28
2022-10-05T02:02:58.355Z,8.29
2022-10-05T02:05:36.293Z,8.20
2022-10-05T02:08:15.447Z,8.29
2022-10-05T02:10:54.019Z,8.23
2022-10-05T02:13:36.091Z,8.23
2022-10-05T02:16:16.272Z,8.22
2022-10-05T02:18:52.534Z,8.17
2022-10-05T02:21:22.678Z,8.27
2022-10-05T02:23:57.806Z,8.27
2022-10-05T02:26:28.992Z,8.20
2022-10-05T02:29:03.608Z,8.22
2022-10-05T02:31:53.232Z,8.28
2022-10-05T02:34:28.871Z,8.33
2022-10-05T02:37:22.671Z,8.25
2022-10-05T02:40:13.746Z,8.40
2022-10-05T02:42:57.291Z,8.44
2022-10-05T02:45:45.724Z,8.40
2022-10-05T02:48:31.091Z,8.45
2022-10-05T02:51:14.810Z,8.48
2022-10-05T02:54:00.465Z,8.44
2022-10-05T02:56:40.564Z,8.41
2022-10-05T02:59:18.434Z,8.42
2022-10-05T03:01:55.015Z,8.51
2022-10-05T03:04:38.424Z,8.45
2022-10-05T03:07:17.490Z,8.52
2022-10-05T03:10:01.108Z,8.53
2022-10-05T03:12:49.929Z,8.46
2022-10-05T03:16:02.187Z,8.49
2022-10-05T03:18:49.599Z,8.52
2022-10-05T03:21:40.361Z,8.54
2022-10-05T03:24:43.808Z,8.60
2022-10-05T03:27:29.865Z,8.60
2022-10-05T03:30:06.815Z,8.59
2022-10-05T03:32:56.483Z,8.56
2022-10-05T03:35:33.896Z,8.61
2022-10-05T03:38:17.954Z,8.65
2022-10-05T03:40:57.052Z,8.67
2022-10-05T03:44:03.578Z,8.72
2022-10-05T03:46:50.734Z,8.68
2022-10-05T03:49:37.847Z,8.64
2022-10-05T03:52:14.077Z,8.73
2022-10-05T03:54:50.135Z,8.68
2022-10-05T03:57:23.351Z,8.71
2022-10-05T04:00:03.115Z,8.70
2022-10-05T04:02:52.245Z,8.66
2022-10-05T04:05:26.141Z,8.73
2022-10-05T04:08:02.967Z,8.73
2022-10-05T04:10:43.720Z,8.66
2022-10-05T04:13:22.456Z,8.68
2022-10-05T04:16:00.325Z,8.66
2022-10-05T04:18:35.824Z,8.75
2022-10-05T04:21:12.784Z,8.69
2022-10-05T04:23:51.544Z,8.70
2022-10-05T04:26:35.232Z,8.69
2022-10-05T04:29:16.398Z,8.73
2022-10-05T04:32:05.835Z,8.79
2022-10-05T04:35:05.946Z,8.74
2022-10-05T04:37:48.761Z,8.77
2022-10-05T04:40:40.144Z,8.80
2022-10-05T04:43:20.240Z,8.81
2022-10-05T04:46:15.440Z,8.75
2022-10-05T04:49:25.459Z,8.79
2022-10-05T04:52:06.907Z,8.72
2022-10-05T04:54:52.920Z,8.79
2022-10-05T04:57:29.743Z,8.80
2022-10-05T05:00:23.384Z,8.78
2022-10-05T05:03:26.389Z,8.80
2022-10-05T05:06:16.982Z,8.82
2022-10-05T05:09:15.501Z,8.87
2022-10-05T05:12:09.016Z,8.85
2022-10-05T05:15:21.585Z,8.89
2022-10-05T05:18:10.459Z,8.87
2022-10-05T05:20:55.312Z,8.88
2022-10-05T05:23:43.782Z,8.93
2022-10-05T05:26:26.867Z,8.90
2022-10-05T05:29:08.855Z,8.97
2022-10-05T05:31:50.455Z,8.95
2022-10-05T05:34:47.385Z,8.96
2022-10-05T05:37:27.573Z,8.96
2022-10-05T05:40:09.033Z,9.01
2022-10-05T05:42:51.360Z,8.89
2022-10-05T05:45:33.809Z,8.85
2022-10-05T05:48:14.286Z,8.91
2022-10-05T05:50:54.972Z,8.96
2022-10-05T05:53:33.178Z,8.90
2022-10-05T05:56:15.932Z,8.91
2022-10-05T05:58:52.053Z,8.96
2022-10-05T06:01:33.556Z,8.92
2022-10-05T06:04:16.549Z,8.95
2022-10-05T06:06:51.821Z,8.96
2022-10-05T06:09:28.426Z,9.04
2022-10-05T06:12:22.505Z,9.08
2022-10-05T06:14:57.985Z,9.12
2022-10-05T06:17:36.215Z,9.12
2022-10-05T06:20:18.280Z,9.10
2022-10-05T06:22:50.290Z,9.09
2022-10-05T06:25:35.773Z,9.16
2022-10-05T06:28:11.457Z,9.18
2022-10-05T06:31:01.765Z,9.24
2022-10-05T06:33:48.303Z,9.29
2022-10-05T06:36:41.604Z,9.31
2022-10-05T06:39:42.007Z,9.44
2022-10-05T06:42:28.154Z,9.35
2022-10-05T06:45:31.590Z,9.49
2022-10-05T06:48:25.722Z,9.52
2022-10-05T06:51:33.885Z,9.55
2022-10-05T06:54:27.523Z,9.52
2022-10-05T06:57:06.197Z,9.53
2022-10-05T06:59:49.652Z,9.46
2022-10-05T07:02:32.386Z,9.48
2022-10-05T07:05:40.636Z,9.50
2022-10-05T07:08:16.619Z,9.63
2022-10-05T07:11:04.729Z,9.52
2022-10-05T07:14:01.707Z,9.52
2022-10-05T07:16:46.568Z,9.56
2022-10-05T07:19:32.894Z,9.52
2022-10-05T07:22:34.241Z,9.58
2022-10-05T07:25:15.090Z,9.60
2022-10-05T07:27:55.147Z,9.67
2022-10-05T07:30:24.754Z,9.66
2022-10-05T07:33:05.398Z,9.75
2022-10-05T07:36:06.147Z,9.86
2022-10-05T07:38:42.178Z,9.92
2022-10-05T07:41:24.037Z,9.95
2022-10-05T07:44:03.399Z,9.94
2022-10-05T07:46:52.941Z,9.99
2022-10-05T07:49:42.943Z,10.08
2022-10-05T07:52:18.226Z,10.08
2022-10-05T07:55:03.554Z,10.12
2022-10-05T07:57:46.635Z,10.13
2022-10-05T08:00:21.480Z,10.20
2022-10-05T08:02:58.391Z,10.20
2022-10-05T08:05:31.257Z,10.20
2022-10-05T08:08:15.535Z,10.16
2022-10-05T08:10:58.291Z,10.12
2022-10-05T08:13:39.275Z,10.06
2022-10-05T08:16:14.692Z,10.09
2022-10-05T08:18:55.981Z,10.17
2022-10-05T08:21:33.224Z,10.22
2022-10-05T08:24:16.861Z,10.30
2022-10-05T08:26:56.313Z,10.35
2022-10-05T08:29:35.764Z,10.40
2022-10-05T08:32:15.331Z,10.43
2022-10-05T08:34:52.601Z,10.50
2022-10-05T08:37:25.964Z,10.48
2022-10-05T08:40:05.607Z,10.47
2022-10-05T08:43:07.094Z,10.49
2022-10-05T08:46:11.128Z,10.52
2022-10-05T08:49:11.432Z,10.59
2022-10-05T08:52:29.274Z,10.65
2022-10-05T08:55:30.410Z,10.75
2022-10-05T08:58:37.895Z,10.67
2022-10-05T09:01:20.405Z,10.78
2022-10-05T09:04:37.163Z,10.64
2022-10-05T09:07:37.727Z,10.58
2022-10-05T09:10:56.296Z,10.61
2022-10-05T09:13:50.893Z,10.80
2022-10-05T09:16:57.354Z,10.98
2022-10-05T09:19:53.172Z,11.32
2022-10-05T09:22:47.592Z,11.43
2022-10-05T09:25:24.686Z,11.50
2022-10-05T09:27:58.503Z,11.57
2022-10-05T09:30:46.955Z,11.57
2022-10-05T09:34:18.834Z,11.54
2022-10-05T09:37:44.280Z,11.41
2022-10-05T09:41:10.269Z,11.22
2022-10-05T09:44:45.777Z,10.96
2022-10-05T09:48:05.564Z,10.99
2022-10-05T09:51:29.607Z,11.05
2022-10-05T09:55:01.442Z,10.92
2022-10-05T09:58:31.995Z,11.21
2022-10-05T10:01:33.592Z,11.40
2022-10-05T10:04:29.792Z,11.38
2022-10-05T10:07:37.793Z,11.47
2022-10-05T10:10:49.978Z,11.43
2022-10-05T10:14:18.530Z,11.55
2022-10-05T10:17:27.669Z,11.59
2022-10-05T10:20:25.929Z,11.64
2022-10-05T10:23:39.174Z,11.83
2022-10-05T10:27:05.878Z,11.87
2022-10-05T10:30:05.151Z,11.91
2022-10-05T10:33:11.800Z,11.94
2022-10-05T10:35:46.109Z,12.04
2022-10-05T10:38:41.439Z,12.10
2022-10-05T10:41:50.966Z,12.13
2022-10-05T10:44:52.423Z,12.20
2022-10-05T10:47:44.544Z,12.25
2022-10-05T10:50:48.831Z,12.30
2022-10-05T10:54:02.616Z,12.44
2022-10-05T10:57:05.184Z,12.64
2022-10-05T11:00:35.845Z,12.58
2022-10-05T11:03:48.902Z,12.49
2022-10-05T11:06:54.315Z,12.47
2022-10-05T11:09:53.292Z,12.46
2022-10-05T11:13:15.176Z,12.53
2022-10-05T11:16:22.557Z,12.57
2022-10-05T11:19:20.440Z,12.59
2022-10-05T11:22:14.924Z,12.64
2022-10-05T11:25:23.135Z,12.73
2022-10-05T11:28:14.333Z,12.79
2022-10-05T11:31:33.089Z,12.95
2022-10-05T11:34:37.586Z,13.04
2022-10-05T11:37:45.176Z,13.12
2022-10-05T11:40:58.734Z,13.07
2022-10-05T11:44:19.379Z,12.93
2022-10-05T11:47:00.760Z,12.89
2022-10-05T11:49:47.146Z,12.80
2022-10-05T11:52:28.730Z,12.77
2022-10-05T11:55:16.509Z,12.76
2022-10-05T11:57:54.983Z,12.64
2022-10-05T12:00:26.601Z,12.60
2022-10-05T12:03:35.826Z,12.51
2022-10-05T12:06:29.297Z,12.61
2022-10-05T12:09:17.290Z,12.51
2022-10-05T12:12:06.041Z,12.40
2022-10-05T12:14:51.261Z,12.36
2022-10-05T12:17:38.180Z,12.36
2022-10-05T12:20:18.101Z,12.36
2022-10-05T12:22:54.978Z,12.33
2022-10-05T12:25:31.893Z,12.33
2022-10-05T12:28:10.156Z,12.27
2022-10-05T12:31:18.252Z,12.17
2022-10-05T12:33:58.807Z,12.04
2022-10-05T12:36:59.630Z,12.01
2022-10-05T12:39:40.896Z,12.01
2022-10-05T12:42:27.206Z,11.99
2022-10-05T12:45:23.521Z,12.02
2022-10-05T12:48:19.913Z,11.97
2022-10-05T12:50:52.298Z,12.00
2022-10-05T12:53:37.194Z,11.97
2022-10-05T12:56:12.556Z,11.91
2022-10-05T12:58:54.811Z,11.85
2022-10-05T13:01:37.305Z,11.81
2022-10-05T13:04:26.469Z,11.71
2022-10-05T13:07:24.001Z,11.72
2022-10-05T13:10:05.207Z,11.82
2022-10-05T13:12:49.872Z,11.78
2022-10-05T13:15:29.107Z,11.80
2022-10-05T13:18:19.168Z,11.79
2022-10-05T13:20:57.079Z,11.69
2022-10-05T13:23:36.023Z,11.57
2022-10-05T13:26:12.194Z,11.50
2022-10-05T13:28:52.387Z,11.59
2022-10-05T13:31:28.182Z,11.55
2022-10-05T13:34:12.415Z,11.57
2022-10-05T13:37:00.994Z,11.53
2022-10-05T13:39:52.792Z,11.52
2022-10-05T13:42:35.028Z,11.54
2022-10-05T13:45:15.083Z,11.44
2022-10-05T13:48:02.519Z,11.48
2022-10-05T13:50:35.071Z,11.37
2022-10-05T13:53:19.458Z,11.42
2022-10-05T13:55:54.101Z,11.43
2022-10-05T13:58:37.710Z,11.46
2022-10-05T14:01:16.935Z,11.47
2022-10-05T14:04:11.149Z,11.41
2022-10-05T14:06:40.985Z,11.42
2022-10-05T14:09:28.471Z,11.40
2022-10-05T14:12:15.874Z,11.36
2022-10-05T14:14:49.113Z,11.34
2022-10-05T14:17:40.966Z,11.29
2022-10-05T14:20:24.152Z,11.35
2022-10-05T14:22:58.952Z,11.39
2022-10-05T14:25:30.668Z,11.29
2022-10-05T14:28:05.359Z,11.25
2022-10-05T14:30:35.120Z,11.20
2022-10-05T14:33:17.150Z,11.20
2022-10-05T14:35:50.234Z,11.12
2022-10-05T14:38:22.753Z,11.06
2022-10-05T14:41:19.700Z,11.13
2022-10-05T14:44:17.638Z,11.11
2022-10-05T14:46:55.685Z,11.07
2022-10-05T14:49:27.370Z,11.00
2022-10-05T14:51:58.713Z,11.01
2022-10-05T14:54:52.437Z,10.96
2022-10-05T14:57:33.624Z,10.92
2022-10-05T15:00:12.503Z,10.89
2022-10-05T15:03:23.912Z,10.83
2022-10-05T15:05:58.906Z,10.82
2022-10-05T15:08:51.295Z,10.79
2022-10-05T15:11:35.711Z,10.80
2022-10-05T15:14:16.343Z,10.77
2022-10-05T15:16:46.423Z,10.73
2022-10-05T15:19:23.849Z,10.68
2022-10-05T15:22:21.070Z,10.63
2022-10-05T15:25:04.087Z,10.66
2022-10-05T15:28:04.105Z,10.60
2022-10-05T15:30:41.143Z,10.60
2022-10-05T15:33:20.560Z,10.55
2022-10-05T15:36:19.980Z,10.55
2022-10-05T15:39:04.922Z,10.51
2022-10-05T15:41:55.897Z,10.48
2022-10-05T15:44:52.269Z,10.50
2022-10-05T15:47:42.430Z,10.45
2022-10-05T15:50:23.971Z,10.42
2022-10-05T15:53:02.303Z,10.42
2022-10-05T15:55:47.205Z,10.43
2022-10-05T15:58:46.334Z,10.41
2022-10-05T16:01:21.760Z,10.41
2022-10-05T16:03:59.120Z,10.41
2022-10-05T16:07:00.839Z,10.44
2022-10-05T16:09:47.434Z,10.40
2022-10-05T16:12:30.870Z,10.38
2022-10-05T16:15:18.891Z,10.35
2022-10-05T16:18:32.805Z,10.33
2022-10-05T16:21:17.051Z,10.32
2022-10-05T16:24:05.099Z,10.26
2022-10-05T16:26:53.216Z,10.28
2022-10-05T16:29:38.680Z,10.25
2022-10-05T16:32:15.129Z,10.25
2022-10-05T16:35:08.839Z,10.20
2022-10-05T16:37:51.564Z,10.21
2022-10-05T16:40:33.477Z,10.22
2022-10-05T16:43:21.767Z,10.24
2022-10-05T16:46:10.319Z,10.19
2022-10-05T16:48:53.612Z,10.15
2022-10-05T16:51:33.416Z,10.20
2022-10-05T16:54:19.253Z,10.17
2022-10-05T16:56:54.207Z,10.20
2022-10-05T17:00:24.846Z,10.15
2022-10-05T17:03:14.728Z,10.17
2022-10-05T17:06:21.031Z,10.17
2022-10-05T17:09:39.659Z,10.22
2022-10-05T17:12:31.403Z,10.16
2022-10-05T17:15:29.753Z,10.24
2022-10-05T17:18:24.585Z,10.23
2022-10-05T17:21:07.880Z,10.17
2022-10-05T17:23:55.464Z,10.14
2022-10-05T17:26:57.813Z,10.17
2022-10-05T17:29:47.826Z,10.21
2022-10-05T17:32:40.331Z,10.20
2022-10-05T17:35:20.570Z,10.17
2022-10-05T17:38:17.334Z,10.20
2022-10-05T17:41:25.358Z,10.23
2022-10-05T17:44:26.460Z,10.22
2022-10-05T17:47:00.671Z,10.22
2022-10-05T17:50:16.382Z,10.24
2022-10-05T17:53:35.290Z,10.27
2022-10-05T17:56:10.108Z,10.24
2022-10-05T17:59:04.974Z,10.17
2022-10-05T18:01:38.384Z,10.23
2022-10-05T18:04:39.323Z,10.22
2022-10-05T18:07:22.460Z,10.16
2022-10-05T18:10:24.694Z,10.17
2022-10-05T18:13:35.878Z,10.21
2022-10-05T18:16:09.143Z,10.13
2022-10-05T18:18:59.410Z,10.15
2022-10-05T18:21:34.365Z,10.21
2022-10-05T18:25:06.033Z,10.09
2022-10-05T18:28:08.661Z,10.10
2022-10-05T18:30:55.932Z,10.08
2022-10-05T18:34:23.245Z,10.01
2022-10-05T18:37:29.827Z,9.97
2022-10-05T18:40:24.926Z,9.92
2022-10-05T18:43:08.636Z,9.94
2022-10-05T18:45:52.041Z,9.93
2022-10-05T18:48:35.917Z,9.87
2022-10-05T18:51:18.013Z,9.82
2022-10-05T18:54:05.409Z,9.72
2022-10-05T18:56:42.902Z,9.78
2022-10-05T18:59:32.624Z,9.76
2022-10-05T19:02:16.218Z,9.66
2022-10-05T19:05:45.800Z,9.63
2022-10-05T19:08:18.755Z,9.60
2022-10-05T19:10:54.703Z,9.62
2022-10-05T19:13:41.691Z,9.62
2022-10-05T19:16:35.834Z,9.69
2022-10-05T19:19:33.339Z,9.67
2022-10-05T19:22:14.121Z,9.65
2022-10-05T19:25:13.950Z,9.62
2022-10-05T19:28:00.209Z,9.57
2022-10-05T19:30:46.861Z,9.57
2022-10-05T19:33:32.487Z,9.47
2022-10-05T19:36:44.396Z,9.44
2022-10-05T19:39:21.490Z,9.47
2022-10-05T19:42:25.911Z,9.47
2022-10-05T19:45:11.802Z,9.52
2022-10-05T19:48:02.971Z,9.50
2022-10-05T19:50:35.044Z,9.58
2022-10-05T19:53:13.963Z,9.61
2022-10-05T19:55:46.646Z,9.62
2022-10-05T19:58:23.437Z,9.62
2022-10-05T20:00:59.533Z,9.66
2022-10-05T20:03:31.386Z,9.68
2022-10-05T20:06:06.832Z,9.66
2022-10-05T20:08:44.329Z,9.58
2022-10-05T20:11:15.664Z,9.72
2022-10-05T20:13:49.025Z,9.75
2022-10-05T20:16:46.991Z,9.73
2022-10-05T20:19:54.371Z,9.71
2022-10-05T20:22:35.613Z,9.73
2022-10-05T20:25:08.298Z,9.79
2022-10-05T20:27:50.139Z,9.75
2022-10-05T20:30:23.168Z,9.80
2022-10-05T20:32:57.734Z,9.80
2022-10-05T20:35:30.686Z,9.84
2022-10-05T20:38:00.955Z,9.81
2022-10-05T20:40:31.377Z,9.83
2022-10-05T20:43:00.426Z,9.91
2022-10-05T20:45:30.517Z,9.89
2022-10-05T20:47:59.154Z,10.00
2022-10-05T20:50:27.957Z,9.94
2022-10-05T20:52:57.815Z,10.01
2022-10-05T20:55:31.377Z,10.02
2022-10-05T20:58:00.398Z,10.08
2022-10-05T21:00:51.592Z,10.02
2022-10-05T21:03:20.618Z,10.06
2022-10-05T21:05:49.316Z,10.01
2022-10-05T21:08:18.139Z,10.09
2022-10-05T21:10:46.781Z,10.10
2022-10-05T21:13:15.409Z,10.07
2022-10-05T21:15:45.455Z,10.13
2022-10-05T21:18:15.810Z,10.13
2022-10-05T21:20:50.438Z,10.13
2022-10-05T21:23:19.069Z,10.15
2022-10-05T21:25:48.819Z,10.13
2022-10-05T21:28:17.488Z,10.13
2022-10-05T21:30:47.505Z,10.13
2022-10-05T21:33:16.226Z,10.15
2022-10-05T21:35:44.994Z,10.18
2022-10-05T21:38:13.914Z,10.15
2022-10-05T21:40:44.163Z,10.20
2022-10-05T21:43:13.487Z,10.20
2022-10-05T21:45:43.799Z,10.24
2022-10-05T21:48:16.310Z,10.29
2022-10-05T21:50:45.371Z,10.32
2022-10-05T21:53:18.245Z,10.29
2022-10-05T21:55:51.188Z,10.30
2022-10-05T21:58:23.113Z,10.33
2022-10-05T22:00:51.822Z,10.33
2022-10-05T22:03:22.704Z,10.33
2022-10-05T22:05:51.454Z,10.35
2022-10-05T22:08:24.028Z,10.34
2022-10-05T22:10:54.781Z,10.33
2022-10-05T22:13:26.169Z,10.35
2022-10-05T22:15:56.558Z,10.38
2022-10-05T22:18:27.483Z,10.42
2022-10-05T22:20:56.445Z,10.42
2022-10-05T22:23:25.177Z,10.38
2022-10-05T22:25:54.832Z,10.36
2022-10-05T22:28:23.635Z,10.44
2022-10-05T22:30:52.298Z,10.43
2022-10-05T22:33:21.298Z,10.50
2022-10-05T22:35:51.600Z,10.52
2022-10-05T22:38:20.246Z,10.51
2022-10-05T22:40:48.956Z,10.47
2022-10-05T22:43:17.692Z,10.41
2022-10-05T22:45:46.440Z,10.45
2022-10-05T22:48:15.844Z,10.48
2022-10-05T22:50:45.915Z,10.45
2022-10-05T22:53:16.249Z,10.52
2022-10-05T22:55:44.833Z,10.48
2022-10-05T22:58:13.638Z,10.51
2022-10-05T23:00:58.994Z,10.47
2022-10-05T23:03:28.188Z,10.51
2022-10-05T23:06:03.189Z,10.57
2022-10-05T23:08:34.499Z,10.61
2022-10-05T23:11:04.032Z,10.58
2022-10-05T23:13:33.632Z,10.55
2022-10-05T23:16:08.866Z,10.56
2022-10-05T23:18:38.052Z,10.52
2022-10-05T23:21:08.656Z,10.50
2022-10-05T23:23:40.076Z,10.55
2022-10-05T23:26:12.758Z,10.52
2022-10-05T23:28:43.222Z,10.59
2022-10-05T23:31:11.933Z,10.56
2022-10-05T23:33:40.685Z,10.50
2022-10-05T23:36:15.189Z,10.56
2022-10-05T23:38:45.963Z,10.53
2022-10-05T23:41:16.124Z,10.53
2022-10-05T23:43:45.352Z,10.59
2022-10-05T23:46:15.035Z,10.59
2022-10-05T23:48:43.739Z,10.60
2022-10-05T23:51:15.620Z,10.61
2022-10-05T23:53:46.054Z,10.65
2022-10-05T23:56:14.569Z,10.61
2022-10-05T23:58:43.355Z,10.62
